sensor_id;sensor_type;location;lat;lon;timestamp;pressure;altitude;pressure_sealevel;temperature;humidity
68329;BME280;55182;56.864;60.554;2023-02-22T00:00:20;76279.47;;;-143.60;81.57
68329;BME280;55182;56.864;60.554;2023-02-22T00:02:46;76281.47;;;-143.60;81.62
68329;BME280;55182;56.864;60.554;2023-02-22T00:05:11;76269.44;;;-143.60;81.71
68329;BME280;55182;56.864;60.554;2023-02-22T00:07:37;76263.41;;;-143.60;81.52
68329;BME280;55182;56.864;60.554;2023-02-22T00:10:02;76265.41;;;-143.60;81.52
68329;BME280;55182;56.864;60.554;2023-02-22T00:12:28;76267.41;;;-143.60;81.34
68329;BME280;55182;56.864;60.554;2023-02-22T00:14:53;76271.44;;;-143.60;81.36
68329;BME280;55182;56.864;60.554;2023-02-22T00:17:19;76271.44;;;-143.60;81.32
68329;BME280;55182;56.864;60.554;2023-02-22T00:19:44;76267.41;;;-143.60;81.63
68329;BME280;55182;56.864;60.554;2023-02-22T00:22:12;76269.44;;;-143.60;81.67
68329;BME280;55182;56.864;60.554;2023-02-22T00:24:37;76271.44;;;-143.60;81.65
68329;BME280;55182;56.864;60.554;2023-02-22T00:27:03;76271.44;;;-143.60;82.25
68329;BME280;55182;56.864;60.554;2023-02-22T00:29:28;76269.44;;;-143.60;82.43
68329;BME280;55182;56.864;60.554;2023-02-22T00:31:54;76271.44;;;-143.60;82.58
68329;BME280;55182;56.864;60.554;2023-02-22T00:34:19;76267.41;;;-143.60;82.82
68329;BME280;55182;56.864;60.554;2023-02-22T00:36:45;76271.44;;;-143.60;83.10
68329;BME280;55182;56.864;60.554;2023-02-22T00:39:11;76271.44;;;-143.60;83.08
68329;BME280;55182;56.864;60.554;2023-02-22T00:41:36;76275.47;;;-143.60;83.02
68329;BME280;55182;56.864;60.554;2023-02-22T00:44:02;76273.44;;;-143.60;83.11
68329;BME280;55182;56.864;60.554;2023-02-22T00:46:27;76275.47;;;-143.60;83.09
68329;BME280;55182;56.864;60.554;2023-02-22T00:48:53;76293.53;;;-143.60;82.91
68329;BME280;55182;56.864;60.554;2023-02-22T00:51:18;76317.66;;;-143.60;82.49
68329;BME280;55182;56.864;60.554;2023-02-22T00:53:44;76335.75;;;-143.60;82.04
68329;BME280;55182;56.864;60.554;2023-02-22T00:56:09;76347.81;;;-143.60;81.57
68329;BME280;55182;56.864;60.554;2023-02-22T00:58:35;76367.91;;;-143.60;81.20
68329;BME280;55182;56.864;60.554;2023-02-22T01:01:00;76404.06;;;-143.60;80.36
68329;BME280;55182;56.864;60.554;2023-02-22T01:03:25;76420.16;;;-143.60;80.53
68329;BME280;55182;56.864;60.554;2023-02-22T01:05:51;76436.22;;;-143.60;80.67
68329;BME280;55182;56.864;60.554;2023-02-22T01:08:16;76450.28;;;-143.60;80.71
68329;BME280;55182;56.864;60.554;2023-02-22T01:10:42;76464.34;;;-143.60;80.90
68329;BME280;55182;56.864;60.554;2023-02-22T01:13:08;76484.44;;;-143.60;81.40
68329;BME280;55182;56.864;60.554;2023-02-22T01:15:34;76486.47;;;-143.60;81.66
68329;BME280;55182;56.864;60.554;2023-02-22T01:18:00;76498.53;;;-143.60;81.81
68329;BME280;55182;56.864;60.554;2023-02-22T01:20:26;76508.56;;;-143.60;81.98
68329;BME280;55182;56.864;60.554;2023-02-22T01:22:53;76514.59;;;-143.60;82.40
68329;BME280;55182;56.864;60.554;2023-02-22T01:25:23;76524.66;;;-143.60;82.47
68329;BME280;55182;56.864;60.554;2023-02-22T01:27:49;76532.69;;;-143.60;82.27
68329;BME280;55182;56.864;60.554;2023-02-22T01:30:15;76546.75;;;-143.60;82.16
68329;BME280;55182;56.864;60.554;2023-02-22T01:32:41;76548.75;;;-143.60;82.04
68329;BME280;55182;56.864;60.554;2023-02-22T01:35:12;76554.78;;;-143.60;82.42
68329;BME280;55182;56.864;60.554;2023-02-22T01:37:38;76556.81;;;-143.60;83.04
68329;BME280;55182;56.864;60.554;2023-02-22T01:40:04;76560.81;;;-143.60;83.22
68329;BME280;55182;56.864;60.554;2023-02-22T01:42:30;76552.78;;;-143.60;83.58
68329;BME280;55182;56.864;60.554;2023-02-22T01:47:40;76532.69;;;-143.60;83.83
68329;BME280;55182;56.864;60.554;2023-02-22T01:50:05;76532.69;;;-143.60;83.94
68329;BME280;55182;56.864;60.554;2023-02-22T01:52:31;76530.69;;;-143.60;83.92
68329;BME280;55182;56.864;60.554;2023-02-22T01:54:56;76532.69;;;-143.60;83.96
68329;BME280;55182;56.864;60.554;2023-02-22T01:59:50;76562.84;;;-143.60;83.21
68329;BME280;55182;56.864;60.554;2023-02-22T02:02:18;76584.94;;;-143.60;82.80
68329;BME280;55182;56.864;60.554;2023-02-22T02:04:44;76605.03;;;-143.60;82.63
68329;BME280;55182;56.864;60.554;2023-02-22T02:07:10;76625.13;;;-143.60;82.53
68329;BME280;55182;56.864;60.554;2023-02-22T02:09:45;76623.13;;;-143.60;82.56
68329;BME280;55182;56.864;60.554;2023-02-22T02:12:13;76641.22;;;-143.60;82.86
68329;BME280;55182;56.864;60.554;2023-02-22T02:14:40;76657.28;;;-143.60;82.72
68329;BME280;55182;56.864;60.554;2023-02-22T02:17:09;76673.38;;;-143.60;83.17
68329;BME280;55182;56.864;60.554;2023-02-22T02:19:40;76701.50;;;-143.60;83.08
68329;BME280;55182;56.864;60.554;2023-02-22T02:22:20;76715.56;;;-143.60;83.12
68329;BME280;55182;56.864;60.554;2023-02-22T02:30:37;76693.47;;;-143.60;84.47
68329;BME280;55182;56.864;60.554;2023-02-22T02:33:13;76693.47;;;-143.60;84.84
68329;BME280;55182;56.864;60.554;2023-02-22T02:38:15;76675.38;;;-143.60;85.22
68329;BME280;55182;56.864;60.554;2023-02-22T02:40:46;76669.34;;;-143.60;84.93
68329;BME280;55182;56.864;60.554;2023-02-22T02:48:24;76635.19;;;-143.60;85.63
68329;BME280;55182;56.864;60.554;2023-02-22T02:50:51;76641.22;;;-143.60;85.59
68329;BME280;55182;56.864;60.554;2023-02-22T02:53:20;76657.28;;;-143.60;85.38
68329;BME280;55182;56.864;60.554;2023-02-22T02:55:48;76679.41;;;-143.60;84.93
68329;BME280;55182;56.864;60.554;2023-02-22T02:58:19;76689.44;;;-143.60;84.74
68329;BME280;55182;56.864;60.554;2023-02-22T03:00:45;76699.50;;;-143.60;84.49
68329;BME280;55182;56.864;60.554;2023-02-22T03:10:47;76731.66;;;-143.60;84.05
68329;BME280;55182;56.864;60.554;2023-02-22T03:14:21;76713.56;;;-143.60;84.14
68329;BME280;55182;56.864;60.554;2023-02-22T03:29:23;76621.13;;;-143.60;84.63
68329;BME280;55182;56.864;60.554;2023-02-22T03:31:53;76629.16;;;-143.60;84.57
68329;BME280;55182;56.864;60.554;2023-02-22T03:34:25;76633.16;;;-143.60;84.30
68329;BME280;55182;56.864;60.554;2023-02-22T03:37:00;76633.16;;;-143.60;84.54
68329;BME280;55182;56.864;60.554;2023-02-22T03:39:28;76645.22;;;-143.60;84.33
68329;BME280;55182;56.864;60.554;2023-02-22T03:41:54;76659.28;;;-143.60;84.00
68329;BME280;55182;56.864;60.554;2023-02-22T03:44:23;76669.34;;;-143.60;83.64
68329;BME280;55182;56.864;60.554;2023-02-22T03:46:52;76679.41;;;-143.60;83.51
68329;BME280;55182;56.864;60.554;2023-02-22T03:51:49;76703.50;;;-143.60;83.19
68329;BME280;55182;56.864;60.554;2023-02-22T03:54:15;76723.59;;;-143.60;82.80
68329;BME280;55182;56.864;60.554;2023-02-22T03:56:43;76733.66;;;-143.60;82.58
68329;BME280;55182;56.864;60.554;2023-02-22T03:59:09;76747.72;;;-143.60;82.34
68329;BME280;55182;56.864;60.554;2023-02-22T04:01:35;76761.78;;;-143.60;82.22
68329;BME280;55182;56.864;60.554;2023-02-22T04:04:01;76767.81;;;-143.60;82.19
68329;BME280;55182;56.864;60.554;2023-02-22T04:06:27;76781.91;;;-143.60;82.20
68329;BME280;55182;56.864;60.554;2023-02-22T04:08:53;76785.91;;;-143.60;82.24
68329;BME280;55182;56.864;60.554;2023-02-22T04:11:20;76789.94;;;-143.60;82.14
68329;BME280;55182;56.864;60.554;2023-02-22T04:13:46;76789.94;;;-143.60;81.98
68329;BME280;55182;56.864;60.554;2023-02-22T04:16:11;76779.88;;;-143.60;82.26
68329;BME280;55182;56.864;60.554;2023-02-22T04:18:38;76757.78;;;-143.60;82.63
68329;BME280;55182;56.864;60.554;2023-02-22T04:21:04;76751.75;;;-143.60;83.35
68329;BME280;55182;56.864;60.554;2023-02-22T04:23:35;76739.69;;;-143.60;83.52
68329;BME280;55182;56.864;60.554;2023-02-22T04:26:01;76727.63;;;-143.60;83.16
68329;BME280;55182;56.864;60.554;2023-02-22T04:28:26;76711.56;;;-143.60;82.30
68329;BME280;55182;56.864;60.554;2023-02-22T04:31:03;76711.56;;;-143.60;81.75
68329;BME280;55182;56.864;60.554;2023-02-22T04:33:29;76713.56;;;-143.60;81.31
68329;BME280;55182;56.864;60.554;2023-02-22T04:35:54;76705.53;;;-143.60;81.08
68329;BME280;55182;56.864;60.554;2023-02-22T04:38:20;76697.47;;;-143.60;80.90
68329;BME280;55182;56.864;60.554;2023-02-22T04:40:46;76685.44;;;-143.60;80.72
68329;BME280;55182;56.864;60.554;2023-02-22T04:43:13;76673.38;;;-143.60;80.49
68329;BME280;55182;56.864;60.554;2023-02-22T04:45:39;76653.25;;;-143.60;80.50
68329;BME280;55182;56.864;60.554;2023-02-22T04:48:06;76633.16;;;-143.60;80.61
68329;BME280;55182;56.864;60.554;2023-02-22T04:50:31;76613.06;;;-143.60;80.90
68329;BME280;55182;56.864;60.554;2023-02-22T04:52:56;76597.00;;;-143.60;81.29
68329;BME280;55182;56.864;60.554;2023-02-22T04:55:22;76564.84;;;-143.60;81.52
68329;BME280;55182;56.864;60.554;2023-02-22T04:57:48;76550.78;;;-143.60;81.72
68329;BME280;55182;56.864;60.554;2023-02-22T05:00:15;76532.69;;;-143.60;81.77
68329;BME280;55182;56.864;60.554;2023-02-22T05:02:41;76524.66;;;-143.60;81.34
68329;BME280;55182;56.864;60.554;2023-02-22T05:05:06;76516.59;;;-143.60;81.36
68329;BME280;55182;56.864;60.554;2023-02-22T05:07:32;76492.50;;;-143.60;81.44
68329;BME280;55182;56.864;60.554;2023-02-22T05:09:57;76480.44;;;-143.60;81.34
68329;BME280;55182;56.864;60.554;2023-02-22T05:12:22;76466.38;;;-143.60;81.31
68329;BME280;55182;56.864;60.554;2023-02-22T05:14:51;76456.31;;;-143.60;80.84
68329;BME280;55182;56.864;60.554;2023-02-22T05:17:16;76442.25;;;-143.60;80.42
68329;BME280;55182;56.864;60.554;2023-02-22T05:19:41;76436.22;;;-143.60;80.43
68329;BME280;55182;56.864;60.554;2023-02-22T05:22:07;76428.19;;;-143.60;80.47
68329;BME280;55182;56.864;60.554;2023-02-22T05:24:32;76418.13;;;-143.60;80.48
68329;BME280;55182;56.864;60.554;2023-02-22T05:26:58;76410.09;;;-143.60;80.24
68329;BME280;55182;56.864;60.554;2023-02-22T05:29:23;76400.06;;;-143.60;79.94
68329;BME280;55182;56.864;60.554;2023-02-22T05:31:49;76385.97;;;-143.60;79.78
68329;BME280;55182;56.864;60.554;2023-02-22T05:34:14;76377.94;;;-143.60;79.86
68329;BME280;55182;56.864;60.554;2023-02-22T05:36:40;76369.91;;;-143.60;79.79
68329;BME280;55182;56.864;60.554;2023-02-22T05:39:05;76369.91;;;-143.60;79.46
68329;BME280;55182;56.864;60.554;2023-02-22T05:41:31;76359.84;;;-143.60;79.60
68329;BME280;55182;56.864;60.554;2023-02-22T05:43:56;76347.81;;;-143.60;79.35
68329;BME280;55182;56.864;60.554;2023-02-22T05:46:22;76333.72;;;-143.60;78.99
68329;BME280;55182;56.864;60.554;2023-02-22T05:48:47;76327.69;;;-143.60;78.19
68329;BME280;55182;56.864;60.554;2023-02-22T05:51:12;76325.69;;;-143.60;77.27
68329;BME280;55182;56.864;60.554;2023-02-22T05:53:38;76313.63;;;-143.60;76.76
68329;BME280;55182;56.864;60.554;2023-02-22T05:56:03;76299.56;;;-143.60;76.40
68329;BME280;55182;56.864;60.554;2023-02-22T05:58:29;76287.50;;;-143.60;76.21
68329;BME280;55182;56.864;60.554;2023-02-22T06:00:55;76275.47;;;-143.60;76.12
68329;BME280;55182;56.864;60.554;2023-02-22T06:03:20;76269.44;;;-143.60;76.02
68329;BME280;55182;56.864;60.554;2023-02-22T06:05:45;76263.41;;;-143.60;75.95
68329;BME280;55182;56.864;60.554;2023-02-22T06:08:11;76243.31;;;-143.60;76.12
68329;BME280;55182;56.864;60.554;2023-02-22T06:10:37;76233.25;;;-143.60;75.72
68329;BME280;55182;56.864;60.554;2023-02-22T06:13:03;76217.19;;;-143.60;75.68
68329;BME280;55182;56.864;60.554;2023-02-22T06:15:29;76195.06;;;-143.60;75.91
68329;BME280;55182;56.864;60.554;2023-02-22T06:17:54;76172.97;;;-143.60;76.25
68329;BME280;55182;56.864;60.554;2023-02-22T06:20:21;76170.97;;;-143.60;75.73
68329;BME280;55182;56.864;60.554;2023-02-22T06:22:50;76158.91;;;-143.60;74.97
68329;BME280;55182;56.864;60.554;2023-02-22T06:25:17;76138.81;;;-143.60;75.19
68329;BME280;55182;56.864;60.554;2023-02-22T06:27:43;76122.72;;;-143.60;75.31
68329;BME280;55182;56.864;60.554;2023-02-22T06:30:10;76122.72;;;-143.60;75.24
68329;BME280;55182;56.864;60.554;2023-02-22T06:32:35;76102.63;;;-143.60;74.90
68329;BME280;55182;56.864;60.554;2023-02-22T06:35:01;76084.56;;;-143.60;74.86
68329;BME280;55182;56.864;60.554;2023-02-22T06:37:26;76066.47;;;-143.60;74.69
68329;BME280;55182;56.864;60.554;2023-02-22T06:39:52;76042.34;;;-143.60;74.84
68329;BME280;55182;56.864;60.554;2023-02-22T06:42:17;76024.28;;;-143.60;74.38
68329;BME280;55182;56.864;60.554;2023-02-22T06:44:43;76008.19;;;-143.60;73.75
68329;BME280;55182;56.864;60.554;2023-02-22T06:47:08;75990.09;;;-143.60;72.81
68329;BME280;55182;56.864;60.554;2023-02-22T06:49:34;75976.03;;;-143.60;72.86
68329;BME280;55182;56.864;60.554;2023-02-22T06:52:00;75945.91;;;-143.60;72.44
68329;BME280;55182;56.864;60.554;2023-02-22T06:54:25;75919.78;;;-143.60;72.05
68329;BME280;55182;56.864;60.554;2023-02-22T06:56:50;75895.66;;;-143.60;71.42
68329;BME280;55182;56.864;60.554;2023-02-22T06:59:16;75871.56;;;-143.60;70.43
68329;BME280;55182;56.864;60.554;2023-02-22T07:01:42;75857.50;;;-143.60;71.14
68329;BME280;55182;56.864;60.554;2023-02-22T07:04:07;75853.47;;;-143.60;70.56
68329;BME280;55182;56.864;60.554;2023-02-22T07:06:33;75845.44;;;-143.60;69.85
68329;BME280;55182;56.864;60.554;2023-02-22T07:08:59;75849.44;;;-143.60;70.43
68329;BME280;55182;56.864;60.554;2023-02-22T07:11:24;75845.44;;;-143.60;69.67
68329;BME280;55182;56.864;60.554;2023-02-22T07:13:49;75857.50;;;-143.60;69.75
68329;BME280;55182;56.864;60.554;2023-02-22T07:16:15;75863.53;;;-143.60;69.72
68329;BME280;55182;56.864;60.554;2023-02-22T07:18:41;75881.59;;;-143.60;70.01
68329;BME280;55182;56.864;60.554;2023-02-22T07:21:06;75893.66;;;-143.60;70.34
68329;BME280;55182;56.864;60.554;2023-02-22T07:23:32;75887.63;;;-143.60;70.61
68329;BME280;55182;56.864;60.554;2023-02-22T07:26:00;75879.59;;;-143.60;70.25
68329;BME280;55182;56.864;60.554;2023-02-22T07:28:26;75869.53;;;-143.60;69.49
68329;BME280;55182;56.864;60.554;2023-02-22T07:30:52;75861.50;;;-143.60;68.57
68329;BME280;55182;56.864;60.554;2023-02-22T07:33:17;75849.44;;;-143.60;68.83
68329;BME280;55182;56.864;60.554;2023-02-22T07:35:43;75847.44;;;-143.60;69.04
68329;BME280;55182;56.864;60.554;2023-02-22T07:38:09;75833.38;;;-143.60;68.86
68329;BME280;55182;56.864;60.554;2023-02-22T07:40:35;75821.31;;;-143.60;69.15
68329;BME280;55182;56.864;60.554;2023-02-22T07:43:06;75815.28;;;-143.60;68.20
68329;BME280;55182;56.864;60.554;2023-02-22T07:45:37;75801.22;;;-143.60;68.57
68329;BME280;55182;56.864;60.554;2023-02-22T07:48:03;75797.22;;;-143.60;68.37
68329;BME280;55182;56.864;60.554;2023-02-22T07:50:29;75781.13;;;-143.60;68.25
68329;BME280;55182;56.864;60.554;2023-02-22T07:52:55;75775.09;;;-143.60;67.96
68329;BME280;55182;56.864;60.554;2023-02-22T07:55:22;75769.09;;;-143.60;67.54
68329;BME280;55182;56.864;60.554;2023-02-22T07:57:48;75769.09;;;-143.60;66.87
68329;BME280;55182;56.864;60.554;2023-02-22T08:00:15;75773.09;;;-143.60;66.74
68329;BME280;55182;56.864;60.554;2023-02-22T08:02:41;75767.06;;;-143.60;66.68
68329;BME280;55182;56.864;60.554;2023-02-22T08:05:07;75761.03;;;-143.60;66.43
68329;BME280;55182;56.864;60.554;2023-02-22T08:07:33;75753.00;;;-143.60;67.07
68329;BME280;55182;56.864;60.554;2023-02-22T08:09:59;75740.94;;;-143.60;66.89
68329;BME280;55182;56.864;60.554;2023-02-22T08:12:24;75740.94;;;-143.60;66.69
68329;BME280;55182;56.864;60.554;2023-02-22T08:14:49;75730.91;;;-143.60;66.39
68329;BME280;55182;56.864;60.554;2023-02-22T08:17:15;75732.91;;;-143.60;66.37
68329;BME280;55182;56.864;60.554;2023-02-22T08:19:41;75724.88;;;-143.60;66.49
68329;BME280;55182;56.864;60.554;2023-02-22T08:22:06;75708.81;;;-143.60;66.68
68329;BME280;55182;56.864;60.554;2023-02-22T08:24:32;75690.72;;;-143.60;66.99
68329;BME280;55182;56.864;60.554;2023-02-22T08:26:57;75680.69;;;-143.60;67.04
68329;BME280;55182;56.864;60.554;2023-02-22T08:29:23;75664.59;;;-143.60;66.58
68329;BME280;55182;56.864;60.554;2023-02-22T08:31:49;75680.69;;;-143.60;65.73
68329;BME280;55182;56.864;60.554;2023-02-22T08:34:14;75684.69;;;-143.60;65.67
68329;BME280;55182;56.864;60.554;2023-02-22T08:36:40;75678.66;;;-143.60;66.29
68329;BME280;55182;56.864;60.554;2023-02-22T08:39:06;75680.69;;;-143.60;66.33
68329;BME280;55182;56.864;60.554;2023-02-22T08:41:31;75660.59;;;-143.60;66.42
68329;BME280;55182;56.864;60.554;2023-02-22T08:43:57;75652.53;;;-143.60;66.31
68329;BME280;55182;56.864;60.554;2023-02-22T08:46:22;75644.50;;;-143.60;66.72
68329;BME280;55182;56.864;60.554;2023-02-22T08:48:51;75646.53;;;-143.60;66.83
68329;BME280;55182;56.864;60.554;2023-02-22T08:51:17;75640.50;;;-143.60;67.14
68329;BME280;55182;56.864;60.554;2023-02-22T08:53:42;75634.47;;;-143.60;67.44
68329;BME280;55182;56.864;60.554;2023-02-22T08:56:08;75622.41;;;-143.60;67.50
68329;BME280;55182;56.864;60.554;2023-02-22T08:58:33;75608.34;;;-143.60;67.25
68329;BME280;55182;56.864;60.554;2023-02-22T09:00:58;75600.31;;;-143.60;67.15
68329;BME280;55182;56.864;60.554;2023-02-22T09:03:24;75604.31;;;-143.60;66.91
68329;BME280;55182;56.864;60.554;2023-02-22T09:05:49;75608.34;;;-143.60;67.07
68329;BME280;55182;56.864;60.554;2023-02-22T09:08:15;75594.28;;;-143.60;67.83
68329;BME280;55182;56.864;60.554;2023-02-22T09:10:41;75568.16;;;-143.60;67.91
68329;BME280;55182;56.864;60.554;2023-02-22T09:13:06;75566.16;;;-143.60;66.42
68329;BME280;55182;56.864;60.554;2023-02-22T09:15:32;75570.16;;;-143.60;66.31
68329;BME280;55182;56.864;60.554;2023-02-22T09:17:58;75562.13;;;-143.60;66.34
68329;BME280;55182;56.864;60.554;2023-02-22T09:20:24;75552.09;;;-143.60;66.77
68329;BME280;55182;56.864;60.554;2023-02-22T09:22:50;75532.00;;;-143.60;65.93
68329;BME280;55182;56.864;60.554;2023-02-22T09:25:16;75521.94;;;-143.60;64.78
68329;BME280;55182;56.864;60.554;2023-02-22T09:27:41;75527.97;;;-143.60;64.58
68329;BME280;55182;56.864;60.554;2023-02-22T09:30:07;75527.97;;;-143.60;64.83
68329;BME280;55182;56.864;60.554;2023-02-22T09:32:33;75519.94;;;-143.60;65.25
68329;BME280;55182;56.864;60.554;2023-02-22T09:35:00;75511.91;;;-143.60;65.63
68329;BME280;55182;56.864;60.554;2023-02-22T09:37:26;75503.88;;;-143.60;65.17
68329;BME280;55182;56.864;60.554;2023-02-22T09:39:51;75491.81;;;-143.60;64.99
68329;BME280;55182;56.864;60.554;2023-02-22T09:42:26;75485.78;;;-143.60;64.44
68329;BME280;55182;56.864;60.554;2023-02-22T09:47:35;75485.78;;;-143.60;64.52
68329;BME280;55182;56.864;60.554;2023-02-22T09:50:04;75477.75;;;-143.60;64.01
68329;BME280;55182;56.864;60.554;2023-02-22T09:52:31;75471.72;;;-143.60;63.91
68329;BME280;55182;56.864;60.554;2023-02-22T09:57:36;75469.72;;;-143.60;63.64
68329;BME280;55182;56.864;60.554;2023-02-22T10:02:36;75467.69;;;-143.60;64.02
68329;BME280;55182;56.864;60.554;2023-02-22T10:05:06;75459.66;;;-143.60;64.39
68329;BME280;55182;56.864;60.554;2023-02-22T10:07:34;75455.66;;;-143.60;64.30
68329;BME280;55182;56.864;60.554;2023-02-22T10:10:03;75461.66;;;-143.60;63.72
68329;BME280;55182;56.864;60.554;2023-02-22T10:12:29;75455.66;;;-143.60;64.73
68329;BME280;55182;56.864;60.554;2023-02-22T10:17:35;75433.53;;;-143.60;64.66
68329;BME280;55182;56.864;60.554;2023-02-22T10:22:51;75423.50;;;-143.60;64.43
68329;BME280;55182;56.864;60.554;2023-02-22T10:25:21;75411.44;;;-143.60;64.31
68329;BME280;55182;56.864;60.554;2023-02-22T10:27:55;75411.44;;;-143.60;64.28
68329;BME280;55182;56.864;60.554;2023-02-22T10:30:24;75425.50;;;-143.60;63.65
68329;BME280;55182;56.864;60.554;2023-02-22T10:32:53;75429.53;;;-143.60;64.14
68329;BME280;55182;56.864;60.554;2023-02-22T10:35:24;75439.56;;;-143.60;64.75
68329;BME280;55182;56.864;60.554;2023-02-22T10:37:52;75447.59;;;-143.60;64.51
68329;BME280;55182;56.864;60.554;2023-02-22T10:40:21;75445.59;;;-143.60;64.38
68329;BME280;55182;56.864;60.554;2023-02-22T10:42:47;75455.66;;;-143.60;64.44
68329;BME280;55182;56.864;60.554;2023-02-22T10:47:48;75471.72;;;-143.60;64.49
68329;BME280;55182;56.864;60.554;2023-02-22T10:50:14;75471.72;;;-143.60;64.31
68329;BME280;55182;56.864;60.554;2023-02-22T10:52:40;75471.72;;;-143.60;64.47
68329;BME280;55182;56.864;60.554;2023-02-22T10:55:11;75475.72;;;-143.60;64.80
68329;BME280;55182;56.864;60.554;2023-02-22T10:57:36;75475.72;;;-143.60;64.86
68329;BME280;55182;56.864;60.554;2023-02-22T11:00:28;75483.78;;;-143.60;65.12
68329;BME280;55182;56.864;60.554;2023-02-22T11:02:49;75493.81;;;-143.60;65.36
68329;BME280;55182;56.864;60.554;2023-02-22T11:05:25;75495.81;;;-143.60;65.93
68329;BME280;55182;56.864;60.554;2023-02-22T11:07:50;75501.84;;;-143.60;65.94
68329;BME280;55182;56.864;60.554;2023-02-22T11:10:19;75511.91;;;-143.60;66.39
68329;BME280;55182;56.864;60.554;2023-02-22T11:12:54;75517.94;;;-143.60;66.81
68329;BME280;55182;56.864;60.554;2023-02-22T11:17:45;75525.97;;;-143.60;67.02
68329;BME280;55182;56.864;60.554;2023-02-22T11:22:43;75546.06;;;-143.60;66.35
68329;BME280;55182;56.864;60.554;2023-02-22T11:25:16;75554.09;;;-143.60;65.97
68329;BME280;55182;56.864;60.554;2023-02-22T11:27:43;75554.09;;;-143.60;66.15
68329;BME280;55182;56.864;60.554;2023-02-22T11:32:35;75564.13;;;-143.60;67.32
68329;BME280;55182;56.864;60.554;2023-02-22T11:35:29;75562.13;;;-143.60;67.36
68329;BME280;55182;56.864;60.554;2023-02-22T11:38:17;75568.16;;;-143.60;67.92
68329;BME280;55182;56.864;60.554;2023-02-22T11:40:44;75572.19;;;-143.60;67.99
68329;BME280;55182;56.864;60.554;2023-02-22T11:43:16;75568.16;;;-143.60;68.10
68329;BME280;55182;56.864;60.554;2023-02-22T11:45:55;75568.16;;;-143.60;68.16
68329;BME280;55182;56.864;60.554;2023-02-22T11:48:22;75566.16;;;-143.60;68.27
68329;BME280;55182;56.864;60.554;2023-02-22T11:55:52;75564.13;;;-143.60;68.65
68329;BME280;55182;56.864;60.554;2023-02-22T12:03:45;75570.16;;;-143.60;69.09
68329;BME280;55182;56.864;60.554;2023-02-22T12:06:17;75572.19;;;-143.60;69.26
68329;BME280;55182;56.864;60.554;2023-02-22T12:13:58;75552.09;;;-143.60;69.14
68329;BME280;55182;56.864;60.554;2023-02-22T12:18:58;75554.09;;;-143.60;68.48
68329;BME280;55182;56.864;60.554;2023-02-22T12:21:26;75546.06;;;-143.60;68.24
68329;BME280;55182;56.864;60.554;2023-02-22T12:23:58;75544.03;;;-143.60;68.42
68329;BME280;55182;56.864;60.554;2023-02-22T12:26:30;75544.03;;;-143.60;67.97
68329;BME280;55182;56.864;60.554;2023-02-22T12:29:40;75554.09;;;-143.60;67.96
68329;BME280;55182;56.864;60.554;2023-02-22T12:31:48;75562.13;;;-143.60;68.24
68329;BME280;55182;56.864;60.554;2023-02-22T12:34:32;75568.16;;;-143.60;68.39
68329;BME280;55182;56.864;60.554;2023-02-22T12:37:11;75584.22;;;-143.60;68.44
68329;BME280;55182;56.864;60.554;2023-02-22T12:39:45;75594.28;;;-143.60;68.49
68329;BME280;55182;56.864;60.554;2023-02-22T12:42:14;75598.28;;;-143.60;68.71
68329;BME280;55182;56.864;60.554;2023-02-22T12:44:41;75604.31;;;-143.60;69.07
68329;BME280;55182;56.864;60.554;2023-02-22T12:47:12;75624.41;;;-143.60;69.17
68329;BME280;55182;56.864;60.554;2023-02-22T12:50:16;75632.44;;;-143.60;69.53
68329;BME280;55182;56.864;60.554;2023-02-22T12:55:10;75664.59;;;-143.60;70.08
68329;BME280;55182;56.864;60.554;2023-02-22T12:57:43;75676.66;;;-143.60;70.18
68329;BME280;55182;56.864;60.554;2023-02-22T13:00:17;75696.75;;;-143.60;70.56
68329;BME280;55182;56.864;60.554;2023-02-22T13:03:15;75704.78;;;-143.60;70.93
68329;BME280;55182;56.864;60.554;2023-02-22T13:05:33;75716.84;;;-143.60;71.38
68329;BME280;55182;56.864;60.554;2023-02-22T13:10:32;75732.91;;;-143.60;71.88
68329;BME280;55182;56.864;60.554;2023-02-22T13:18:30;75773.09;;;-143.60;72.65
68329;BME280;55182;56.864;60.554;2023-02-22T13:21:03;75785.16;;;-143.60;72.79
68329;BME280;55182;56.864;60.554;2023-02-22T13:26:04;75819.31;;;-143.60;73.36
68329;BME280;55182;56.864;60.554;2023-02-22T13:28:47;75825.34;;;-143.60;73.70
68329;BME280;55182;56.864;60.554;2023-02-22T13:36:37;75849.44;;;-143.60;74.74
68329;BME280;55182;56.864;60.554;2023-02-22T13:39:21;75867.53;;;-143.60;74.64
68329;BME280;55182;56.864;60.554;2023-02-22T13:42:03;75889.63;;;-143.60;74.72
68329;BME280;55182;56.864;60.554;2023-02-22T13:49:42;75919.78;;;-143.60;75.26
68329;BME280;55182;56.864;60.554;2023-02-22T13:52:13;75935.84;;;-143.60;75.60
68329;BME280;55182;56.864;60.554;2023-02-22T13:54:43;75939.88;;;-143.60;76.03
68329;BME280;55182;56.864;60.554;2023-02-22T13:57:17;75939.88;;;-143.60;76.60
68329;BME280;55182;56.864;60.554;2023-02-22T13:59:42;75939.88;;;-143.60;76.94
68329;BME280;55182;56.864;60.554;2023-02-22T14:02:15;75941.88;;;-143.60;77.23
68329;BME280;55182;56.864;60.554;2023-02-22T14:04:53;75955.94;;;-143.60;77.23
68329;BME280;55182;56.864;60.554;2023-02-22T14:09:48;75978.06;;;-143.60;77.04
68329;BME280;55182;56.864;60.554;2023-02-22T14:17:36;76010.19;;;-143.60;78.36
68329;BME280;55182;56.864;60.554;2023-02-22T14:20:03;76006.19;;;-143.60;78.65
68329;BME280;55182;56.864;60.554;2023-02-22T14:22:42;76006.19;;;-143.60;78.80
68329;BME280;55182;56.864;60.554;2023-02-22T14:27:52;76022.25;;;-143.60;78.66
68329;BME280;55182;56.864;60.554;2023-02-22T14:30:23;76034.31;;;-143.60;78.51